Time;durP1;ratioP1;P1;durP2;ratioP2;P2;SDS_P1;SDS_P2;PMS_P1;PMS_P2;Temp;Humidity;BMP_temperature;BMP_pressure;BME280_temperature;BME280_humidity;BME280_pressure;Samples;Min_cycle;Max_cycle;Signal;HPM_P1;HPM_P2
2022/03/30 00:01:06;;;;;;;9.15;4.22;;;9.60;63.40;;;;;;5048392;28;20228;-69
2022/03/30 00:03:33;;;;;;;6.43;3.30;;;9.60;63.30;;;;;;5048695;28;20221;-70
2022/03/30 00:06:03;;;;;;;8.27;4.43;;;9.60;63.30;;;;;;5049268;28;20307;-70
2022/03/30 00:08:30;;;;;;;8.23;2.97;;;9.60;63.10;;;;;;5047596;28;20274;-69
2022/03/30 00:10:57;;;;;;;11.75;4.00;;;9.60;63.20;;;;;;5048674;28;20224;-69
2022/03/30 00:13:24;;;;;;;3.47;2.50;;;9.60;63.40;;;;;;5047666;28;20228;-69
2022/03/30 00:15:51;;;;;;;3.47;2.45;;;9.60;63.40;;;;;;5049414;28;20221;-69
2022/03/30 00:18:20;;;;;;;5.82;3.75;;;9.60;63.70;;;;;;5047473;28;20223;-69
2022/03/30 00:20:47;;;;;;;7.15;2.95;;;9.60;63.70;;;;;;5048883;28;20221;-70
2022/03/30 00:23:14;;;;;;;5.60;2.92;;;9.50;63.60;;;;;;5048835;28;20560;-69
2022/03/30 00:25:40;;;;;;;7.95;3.33;;;9.50;63.90;;;;;;5049791;28;20221;-69
2022/03/30 00:28:08;;;;;;;9.07;3.13;;;9.50;63.90;;;;;;5049047;28;21122;-69
2022/03/30 00:30:35;;;;;;;8.65;3.92;;;9.50;64.00;;;;;;5048600;28;21382;-69
2022/03/30 00:33:06;;;;;;;7.53;4.30;;;9.50;64.00;;;;;;5049702;28;20573;-69
2022/03/30 00:35:34;;;;;;;8.18;4.05;;;9.50;64.30;;;;;;5048579;28;20251;-68
2022/03/30 00:38:01;;;;;;;8.93;4.53;;;9.50;64.40;;;;;;5049826;28;20236;-69
2022/03/30 00:40:28;;;;;;;11.07;5.13;;;9.50;64.40;;;;;;5049142;28;20225;-69
2022/03/30 00:42:55;;;;;;;8.45;4.47;;;9.50;64.40;;;;;;5049379;28;20593;-69
2022/03/30 00:45:24;;;;;;;7.57;3.60;;;9.50;64.70;;;;;;5047800;28;20217;-69
2022/03/30 00:47:52;;;;;;;10.32;3.83;;;9.50;64.60;;;;;;5049344;28;20216;-69
2022/03/30 00:50:22;;;;;;;11.48;4.55;;;9.50;64.80;;;;;;5046177;28;20228;-69
2022/03/30 00:52:53;;;;;;;10.43;3.70;;;9.50;64.90;;;;;;5049228;28;20560;-70
2022/03/30 00:55:21;;;;;;;5.50;3.35;;;9.50;65.10;;;;;;5047768;28;20220;-70
2022/03/30 00:57:48;;;;;;;4.03;3.20;;;9.50;65.00;;;;;;5048930;28;20220;-70
2022/03/30 01:00:16;;;;;;;6.50;3.13;;;9.40;65.00;;;;;;5048105;28;20231;-70
2022/03/30 01:02:45;;;;;;;7.50;3.53;;;9.50;65.10;;;;;;5050085;28;20674;-70
2022/03/30 01:05:13;;;;;;;9.20;4.05;;;9.50;65.30;;;;;;5051917;28;20282;-69
2022/03/30 01:07:40;;;;;;;7.22;3.15;;;9.50;65.40;;;;;;5051646;28;20235;-69
2022/03/30 01:10:11;;;;;;;8.25;3.35;;;9.50;65.50;;;;;;5052159;28;20217;-69
2022/03/30 01:12:39;;;;;;;6.22;2.60;;;9.50;65.40;;;;;;5050465;28;20231;-69
2022/03/30 01:15:07;;;;;;;4.97;3.33;;;9.50;65.10;;;;;;5050562;28;20229;-69
2022/03/30 01:17:34;;;;;;;5.50;3.17;;;9.50;65.00;;;;;;5051987;28;20220;-69
2022/03/30 01:20:01;;;;;;;5.32;3.67;;;9.50;64.90;;;;;;5051657;28;20224;-69
2022/03/30 01:22:29;;;;;;;5.25;3.10;;;9.40;64.70;;;;;;5051585;28;20224;-69
2022/03/30 01:24:56;;;;;;;5.55;2.55;;;9.50;64.70;;;;;;5052409;28;20232;-69
2022/03/30 01:27:23;;;;;;;10.57;3.70;;;9.50;64.80;;;;;;5050661;28;20221;-69
2022/03/30 01:32:36;;;;;;;6.57;3.05;;;9.40;65.00;;;;;;5051672;28;20244;-69
2022/03/30 01:35:05;;;;;;;6.30;3.92;;;9.40;65.00;;;;;;5050104;28;20237;-69
2022/03/30 01:37:33;;;;;;;6.43;3.50;;;9.40;65.30;;;;;;5051407;28;20221;-69
2022/03/30 01:40:03;;;;;;;7.68;3.35;;;9.40;65.30;;;;;;5052327;28;20224;-66
2022/03/30 01:42:30;;;;;;;6.93;3.38;;;9.30;65.40;;;;;;5050949;28;20221;-68
2022/03/30 01:44:57;;;;;;;6.65;3.13;;;9.30;65.60;;;;;;5051753;28;20225;-68
2022/03/30 01:47:24;;;;;;;7.18;3.53;;;9.30;65.90;;;;;;5051246;28;20564;-67
2022/03/30 01:49:51;;;;;;;8.95;4.28;;;9.20;66.10;;;;;;5051647;28;20225;-66
2022/03/30 01:52:19;;;;;;;12.82;4.25;;;9.20;66.50;;;;;;5051029;28;20221;-66
2022/03/30 01:54:49;;;;;;;9.90;3.55;;;9.20;66.30;;;;;;5052259;28;20728;-66
2022/03/30 01:57:16;;;;;;;6.75;3.70;;;9.10;66.40;;;;;;5051355;28;20278;-67
2022/03/30 01:59:45;;;;;;;7.32;3.15;;;9.20;66.60;;;;;;5051392;28;20221;-67
2022/03/30 02:02:13;;;;;;;9.02;2.92;;;9.10;66.50;;;;;;5050534;28;20680;-66
2022/03/30 02:04:40;;;;;;;9.20;2.90;;;9.10;66.70;;;;;;5050609;28;20225;-66
2022/03/30 02:07:09;;;;;;;8.15;3.63;;;9.10;66.70;;;;;;5051997;28;20235;-67
2022/03/30 02:09:36;;;;;;;4.07;3.53;;;9.10;66.70;;;;;;5051370;28;20252;-66
2022/03/30 02:12:05;;;;;;;10.30;3.67;;;9.10;66.50;;;;;;5050964;28;20244;-66
2022/03/30 02:14:32;;;;;;;6.55;3.70;;;9.10;66.60;;;;;;5050271;28;20266;-67
2022/03/30 02:16:59;;;;;;;5.32;3.60;;;9.10;66.70;;;;;;5050608;28;20691;-67
2022/03/30 02:19:26;;;;;;;8.88;3.50;;;9.10;66.80;;;;;;5051476;28;20668;-67
2022/03/30 02:21:53;;;;;;;7.70;3.60;;;9.10;66.90;;;;;;5049588;28;20233;-67
2022/03/30 02:24:19;;;;;;;7.90;3.28;;;9.00;67.00;;;;;;5051749;28;20217;-67
2022/03/30 02:26:47;;;;;;;10.07;3.08;;;9.10;67.10;;;;;;5050665;28;20230;-67
2022/03/30 02:29:15;;;;;;;7.95;3.65;;;9.00;67.10;;;;;;5051430;28;20217;-66
2022/03/30 02:31:42;;;;;;;6.45;2.92;;;9.00;67.30;;;;;;5051367;28;20228;-68
2022/03/30 02:34:09;;;;;;;7.88;3.92;;;9.00;67.40;;;;;;5049832;28;20233;-67
2022/03/30 02:36:36;;;;;;;20.33;10.43;;;9.00;67.30;;;;;;5050472;28;20604;-68
2022/03/30 02:39:04;;;;;;;9.65;5.63;;;9.00;67.60;;;;;;5050677;28;20227;-68
2022/03/30 02:41:31;;;;;;;8.05;4.43;;;8.90;67.60;;;;;;5050366;28;20225;-68
2022/03/30 02:43:58;;;;;;;4.32;3.47;;;8.90;67.70;;;;;;5049672;28;20231;-68
2022/03/30 02:46:26;;;;;;;12.43;5.15;;;8.90;67.80;;;;;;5050109;28;20229;-68
2022/03/30 02:48:55;;;;;;;6.82;3.70;;;8.90;67.90;;;;;;5047604;28;20243;-68
2022/03/30 02:51:22;;;;;;;9.75;4.63;;;8.90;68.20;;;;;;5049112;28;20233;-68
2022/03/30 02:53:49;;;;;;;8.82;3.17;;;8.80;68.30;;;;;;5046881;28;20228;-68
2022/03/30 02:56:16;;;;;;;5.97;2.78;;;8.80;68.30;;;;;;5048834;28;20566;-68
2022/03/30 02:58:43;;;;;;;5.05;2.95;;;8.80;68.40;;;;;;5049083;28;20244;-68
2022/03/30 03:01:10;;;;;;;5.00;2.88;;;8.80;68.40;;;;;;5050126;28;20303;-68
2022/03/30 03:03:38;;;;;;;8.40;3.47;;;8.80;68.60;;;;;;5043653;28;20578;-68
2022/03/30 03:06:05;;;;;;;7.70;3.10;;;8.80;68.80;;;;;;5051453;28;20244;-68
2022/03/30 03:08:32;;;;;;;9.20;3.42;;;8.80;68.90;;;;;;5052390;28;20579;-68
2022/03/30 03:10:59;;;;;;;7.25;3.15;;;8.80;69.00;;;;;;5052479;28;20229;-68
2022/03/30 03:13:26;;;;;;;8.27;3.33;;;8.70;68.90;;;;;;5052798;28;20227;-68
2022/03/30 03:15:52;;;;;;;7.15;3.55;;;8.70;69.30;;;;;;5052749;28;21274;-68
2022/03/30 03:18:20;;;;;;;9.25;3.75;;;8.70;69.30;;;;;;5052838;28;20233;-68
2022/03/30 03:20:49;;;;;;;5.07;3.70;;;8.60;69.50;;;;;;5052513;28;20229;-67
2022/03/30 03:23:17;;;;;;;12.50;6.65;;;8.60;69.70;;;;;;5052777;28;20231;-68
2022/03/30 03:25:45;;;;;;;10.55;3.65;;;8.70;69.90;;;;;;5050716;28;20440;-68
2022/03/30 03:28:13;;;;;;;5.63;3.55;;;8.60;70.10;;;;;;5053005;28;20221;-68
2022/03/30 03:30:41;;;;;;;10.13;3.42;;;8.60;70.30;;;;;;5052080;28;20232;-68
2022/03/30 03:33:09;;;;;;;5.63;3.22;;;8.60;70.50;;;;;;5052608;28;20248;-68
2022/03/30 03:35:36;;;;;;;5.10;3.20;;;8.60;70.50;;;;;;5052203;28;20228;-67
2022/03/30 03:38:06;;;;;;;8.98;3.45;;;8.50;70.40;;;;;;5052510;28;20221;-67
2022/03/30 03:40:33;;;;;;;6.32;3.35;;;8.40;71.00;;;;;;5051991;28;20915;-67
2022/03/30 03:43:01;;;;;;;10.15;3.75;;;8.40;71.10;;;;;;5052610;28;20311;-67
2022/03/30 03:45:28;;;;;;;7.60;2.97;;;8.40;71.30;;;;;;5052524;28;20674;-67
2022/03/30 03:47:55;;;;;;;6.45;3.22;;;8.40;71.50;;;;;;5052143;28;20221;-68
2022/03/30 03:50:22;;;;;;;7.47;3.00;;;8.40;71.50;;;;;;5039038;28;20232;-67
2022/03/30 03:52:50;;;;;;;3.17;2.30;;;8.40;71.50;;;;;;5052014;28;20236;-67
2022/03/30 03:55:18;;;;;;;7.93;3.53;;;8.30;71.50;;;;;;5052216;28;20227;-67
2022/03/30 03:57:45;;;;;;;12.73;4.55;;;8.30;71.50;;;;;;5052257;28;20237;-67
2022/03/30 04:00:13;;;;;;;9.70;4.07;;;8.30;71.50;;;;;;5052323;28;20228;-69
2022/03/30 04:02:40;;;;;;;9.50;3.15;;;8.30;71.90;;;;;;5046850;28;20288;-68
2022/03/30 04:05:09;;;;;;;6.90;3.35;;;8.30;72.00;;;;;;5051780;28;20236;-67
2022/03/30 04:07:37;;;;;;;4.82;2.83;;;8.20;72.20;;;;;;5051856;28;20674;-67
2022/03/30 04:10:05;;;;;;;7.72;4.30;;;8.20;72.30;;;;;;5039355;28;20290;-67
2022/03/30 04:12:34;;;;;;;16.60;5.07;;;8.20;72.60;;;;;;5051764;28;20229;-67
2022/03/30 04:15:00;;;;;;;11.10;3.72;;;8.10;72.70;;;;;;5051499;28;20233;-67
2022/03/30 04:17:29;;;;;;;8.77;4.88;;;8.10;72.70;;;;;;5050492;28;20216;-67
2022/03/30 04:19:56;;;;;;;10.18;4.53;;;8.10;72.60;;;;;;5050109;28;20614;-67
2022/03/30 04:22:23;;;;;;;6.57;3.72;;;8.10;72.80;;;;;;5050468;28;20225;-67
2022/03/30 04:24:50;;;;;;;7.82;3.95;;;8.10;73.00;;;;;;5054809;28;20233;-67
2022/03/30 04:27:17;;;;;;;7.45;3.28;;;8.10;73.20;;;;;;5050424;28;20576;-67
2022/03/30 04:29:45;;;;;;;8.85;4.43;;;8.10;73.30;;;;;;5050074;28;20220;-67
2022/03/30 04:32:12;;;;;;;11.45;4.25;;;8.00;73.30;;;;;;5052304;28;20233;-67
2022/03/30 04:34:39;;;;;;;9.82;4.15;;;8.00;74.40;;;;;;5051486;28;20221;-66
2022/03/30 04:37:06;;;;;;;11.57;4.45;;;8.00;74.60;;;;;;5052891;28;20239;-66
2022/03/30 04:39:33;;;;;;;7.00;3.72;;;7.90;75.10;;;;;;5056034;28;20231;-66
2022/03/30 04:42:00;;;;;;;7.72;3.67;;;7.80;74.60;;;;;;5055393;28;20327;-65
2022/03/30 04:44:26;;;;;;;7.68;3.30;;;7.80;74.70;;;;;;5055998;28;20217;-64
2022/03/30 04:46:55;;;;;;;5.70;3.15;;;7.80;74.90;;;;;;5055473;28;20232;-65
2022/03/30 04:49:22;;;;;;;7.38;4.00;;;7.80;75.00;;;;;;5055726;28;20278;-66
2022/03/30 04:51:49;;;;;;;13.57;7.45;;;7.90;75.20;;;;;;5055062;28;20236;-65
2022/03/30 04:54:17;;;;;;;12.02;8.60;;;7.80;75.40;;;;;;5055805;28;20289;-66
2022/03/30 04:56:44;;;;;;;12.43;6.15;;;7.90;75.60;;;;;;5055220;28;20224;-66
2022/03/30 04:59:11;;;;;;;28.50;14.88;;;7.80;76.00;;;;;;5055733;28;20229;-65
2022/03/30 05:01:38;;;;;;;15.60;8.38;;;7.80;76.20;;;;;;5055026;28;20243;-65
2022/03/30 05:04:08;;;;;;;14.70;8.35;;;7.90;76.40;;;;;;5048889;28;20237;-65
2022/03/30 05:06:35;;;;;;;9.75;4.90;;;7.90;76.70;;;;;;5055255;28;20221;-65
2022/03/30 05:09:02;;;;;;;49.25;28.42;;;7.90;76.80;;;;;;5055151;28;20656;-65
2022/03/30 05:11:28;;;;;;;20.45;10.00;;;7.90;76.70;;;;;;5055032;28;20229;-65
2022/03/30 05:13:55;;;;;;;8.55;5.30;;;8.00;77.10;;;;;;5054921;28;20683;-66
2022/03/30 05:16:22;;;;;;;13.43;4.60;;;7.90;76.70;;;;;;5055350;28;20695;-64
2022/03/30 05:18:49;;;;;;;10.30;5.60;;;7.90;76.70;;;;;;5054890;28;20251;-66
2022/03/30 05:21:17;;;;;;;8.13;3.97;;;8.00;76.70;;;;;;5055176;28;20243;-65
2022/03/30 05:23:44;;;;;;;5.65;3.83;;;8.00;76.50;;;;;;5054477;28;20217;-65
2022/03/30 05:26:11;;;;;;;14.00;6.90;;;8.10;76.20;;;;;;5054670;28;20225;-65
2022/03/30 05:28:40;;;;;;;11.63;4.63;;;8.10;76.60;;;;;;5055358;28;20606;-64
2022/03/30 05:31:07;;;;;;;27.10;13.65;;;8.10;76.60;;;;;;5054738;28;20954;-65
2022/03/30 05:33:34;;;;;;;10.23;4.85;;;8.10;76.80;;;;;;5054924;28;20225;-64
2022/03/30 05:36:01;;;;;;;13.77;7.95;;;8.00;77.20;;;;;;5054327;28;20315;-64
2022/03/30 05:38:29;;;;;;;10.25;6.70;;;8.10;77.40;;;;;;5054977;28;20221;-65
2022/03/30 05:40:56;;;;;;;11.85;6.40;;;8.10;77.40;;;;;;5040961;28;20243;-66
2022/03/30 05:43:25;;;;;;;12.50;5.18;;;8.10;77.40;;;;;;5054939;28;20229;-66
2022/03/30 05:45:52;;;;;;;7.05;5.00;;;8.20;76.80;;;;;;5054210;28;20221;-65
2022/03/30 05:48:18;;;;;;;11.55;5.32;;;8.20;76.60;;;;;;5053910;28;20232;-66
2022/03/30 05:50:45;;;;;;;8.85;4.60;;;8.20;76.80;;;;;;5053767;28;20679;-65
2022/03/30 05:53:13;;;;;;;8.43;3.72;;;8.20;76.60;;;;;;5054501;28;20220;-65
2022/03/30 05:55:45;;;;;;;11.60;4.82;;;8.30;76.70;;;;;;5046742;28;20283;-65
2022/03/30 05:58:12;;;;;;;10.60;4.20;;;8.20;76.60;;;;;;5039162;28;21033;-66
2022/03/30 06:00:39;;;;;;;6.80;3.75;;;8.20;76.50;;;;;;5054317;28;20227;-64
2022/03/30 06:03:06;;;;;;;7.70;3.92;;;8.30;76.80;;;;;;5053863;28;20225;-65
2022/03/30 06:05:32;;;;;;;9.20;4.60;;;8.30;76.70;;;;;;5054322;28;20595;-65
2022/03/30 06:07:59;;;;;;;12.43;4.00;;;8.30;76.70;;;;;;5053890;28;20225;-66
2022/03/30 06:10:27;;;;;;;5.82;3.28;;;8.30;76.50;;;;;;5055051;28;20286;-64
2022/03/30 06:12:55;;;;;;;8.55;4.72;;;8.40;76.70;;;;;;5054888;28;20571;-64
2022/03/30 06:15:22;;;;;;;10.07;4.40;;;8.40;76.70;;;;;;5054041;28;20217;-65
2022/03/30 06:17:50;;;;;;;7.82;4.05;;;8.40;76.80;;;;;;5053648;28;20229;-65
2022/03/30 06:20:18;;;;;;;16.60;4.53;;;8.40;76.80;;;;;;5054215;28;20224;-65
2022/03/30 06:22:45;;;;;;;8.50;3.67;;;8.40;76.60;;;;;;5053884;28;20224;-65
2022/03/30 06:25:12;;;;;;;8.70;3.30;;;8.50;76.40;;;;;;5053387;28;20238;-66
2022/03/30 06:27:40;;;;;;;8.90;3.15;;;8.50;76.00;;;;;;5053650;28;20228;-63
2022/03/30 06:30:10;;;;;;;9.48;2.33;;;8.60;75.70;;;;;;5053523;28;20228;-65
2022/03/30 06:32:37;;;;;;;8.93;2.92;;;8.60;75.60;;;;;;5053701;28;20539;-65
2022/03/30 06:35:04;;;;;;;4.82;2.78;;;8.70;75.20;;;;;;5053061;28;20232;-65
2022/03/30 06:37:31;;;;;;;9.00;3.70;;;8.70;74.90;;;;;;5053636;28;20224;-65
2022/03/30 06:39:58;;;;;;;8.60;3.25;;;8.80;74.80;;;;;;5053306;28;20221;-65
2022/03/30 06:42:25;;;;;;;9.27;3.55;;;8.80;74.70;;;;;;5053522;28;20216;-65
2022/03/30 06:44:52;;;;;;;10.23;3.55;;;8.80;74.60;;;;;;5053194;28;20221;-65
2022/03/30 06:47:20;;;;;;;7.70;3.15;;;8.80;74.70;;;;;;5048638;28;20232;-65
2022/03/30 06:49:47;;;;;;;6.80;3.63;;;8.80;75.10;;;;;;5047661;28;20221;-65
2022/03/30 06:52:13;;;;;;;9.55;4.20;;;8.90;74.90;;;;;;5053032;28;20224;-65
2022/03/30 06:54:40;;;;;;;5.13;3.00;;;8.90;75.00;;;;;;5053459;28;20243;-65
2022/03/30 06:57:08;;;;;;;10.82;3.35;;;9.00;75.00;;;;;;5033266;28;20701;-65
2022/03/30 06:59:35;;;;;;;11.88;4.20;;;9.00;74.80;;;;;;5048764;28;20216;-66
2022/03/30 07:02:02;;;;;;;7.28;4.07;;;9.00;74.50;;;;;;5052958;28;20567;-65
2022/03/30 07:04:31;;;;;;;6.68;3.10;;;9.00;74.40;;;;;;5049409;28;20224;-64
2022/03/30 07:12:26;;;;;;;6.15;2.70;;;9.10;74.70;;;;;;5055589;28;20732;-65
2022/03/30 07:14:55;;;;;;;5.20;3.05;;;9.20;74.90;;;;;;5053180;28;20754;-65
2022/03/30 07:17:21;;;;;;;13.32;6.43;;;9.20;74.30;;;;;;5052672;28;20220;-65
2022/03/30 07:19:50;;;;;;;10.10;3.67;;;9.30;74.40;;;;;;5051879;28;20709;-65
2022/03/30 07:22:16;;;;;;;6.85;3.65;;;9.30;74.60;;;;;;5052631;28;20239;-65
2022/03/30 07:24:44;;;;;;;9.63;3.90;;;9.30;74.60;;;;;;5052711;28;20558;-65
2022/03/30 07:27:11;;;;;;;10.52;3.58;;;9.40;74.50;;;;;;5052708;28;20620;-65
2022/03/30 07:29:38;;;;;;;4.85;2.40;;;9.40;73.90;;;;;;5052899;28;20227;-65
2022/03/30 07:32:06;;;;;;;8.38;2.85;;;9.50;73.30;;;;;;5052480;28;20312;-65
2022/03/30 07:34:33;;;;;;;12.43;3.45;;;9.50;73.20;;;;;;5052983;28;20286;-65
2022/03/30 07:37:01;;;;;;;8.70;3.60;;;9.60;73.30;;;;;;5052721;28;20570;-65
2022/03/30 07:39:28;;;;;;;10.77;3.05;;;9.60;73.20;;;;;;5052306;28;20224;-64
2022/03/30 07:41:54;;;;;;;6.95;2.80;;;9.70;73.20;;;;;;5052701;28;20585;-64
2022/03/30 07:44:21;;;;;;;7.20;3.30;;;9.70;73.30;;;;;;5052109;28;20228;-66
2022/03/30 07:46:49;;;;;;;10.70;3.22;;;9.70;72.80;;;;;;5052626;28;20311;-65
2022/03/30 07:49:17;;;;;;;7.20;2.80;;;9.80;72.60;;;;;;5052157;28;20236;-65
2022/03/30 07:51:44;;;;;;;9.93;3.72;;;9.90;72.40;;;;;;5052384;28;20272;-65
2022/03/30 07:54:12;;;;;;;4.28;3.08;;;9.90;72.10;;;;;;5052160;28;20232;-64
2022/03/30 07:56:39;;;;;;;9.93;4.32;;;9.90;71.90;;;;;;5052696;28;20217;-64
2022/03/30 07:59:06;;;;;;;6.60;3.65;;;9.90;71.60;;;;;;5052284;28;20275;-65
2022/03/30 08:01:33;;;;;;;9.50;4.00;;;10.00;70.40;;;;;;5052050;28;20228;-65
2022/03/30 08:03:59;;;;;;;11.25;3.53;;;10.00;69.90;;;;;;5052749;28;20228;-65
2022/03/30 08:06:29;;;;;;;8.50;4.00;;;10.10;69.90;;;;;;5052078;28;20623;-64
2022/03/30 08:08:55;;;;;;;8.77;3.25;;;10.00;69.60;;;;;;5052583;28;20232;-64
2022/03/30 08:11:24;;;;;;;16.75;3.45;;;10.10;69.70;;;;;;5051815;28;20229;-65
2022/03/30 08:13:51;;;;;;;13.48;3.75;;;10.10;70.40;;;;;;5056353;28;20578;-64
2022/03/30 08:16:18;;;;;;;10.85;3.10;;;10.10;69.20;;;;;;5056277;28;20304;-64
2022/03/30 08:18:45;;;;;;;9.82;3.35;;;10.20;69.20;;;;;;5056463;28;20539;-64
2022/03/30 08:23:56;;;;;;;5.00;3.17;;;10.30;68.50;;;;;;5056672;28;20239;-64
2022/03/30 08:26:26;;;;;;;9.82;3.67;;;10.30;67.00;;;;;;5056073;28;20286;-65
2022/03/30 08:28:52;;;;;;;8.68;3.60;;;10.40;67.00;;;;;;5056261;28;20220;-65
2022/03/30 08:31:19;;;;;;;5.93;2.95;;;10.50;66.70;;;;;;5055851;28;20244;-65
2022/03/30 08:33:46;;;;;;;9.15;3.65;;;10.50;66.40;;;;;;5056224;28;20235;-65
2022/03/30 08:36:13;;;;;;;6.30;3.05;;;10.60;66.30;;;;;;5055722;28;20232;-65
2022/03/30 08:38:40;;;;;;;8.77;2.80;;;10.70;66.10;;;;;;5056041;28;20679;-65
2022/03/30 08:41:07;;;;;;;7.43;3.85;;;10.80;65.20;;;;;;5055939;28;20678;-65
2022/03/30 08:43:36;;;;;;;8.18;2.97;;;10.80;63.90;;;;;;5055626;28;20216;-66
2022/03/30 08:46:03;;;;;;;6.75;3.33;;;10.90;63.40;;;;;;5056022;28;20217;-64
2022/03/30 08:48:30;;;;;;;16.55;3.67;;;10.90;63.10;;;;;;5055707;28;20413;-65
2022/03/30 08:50:58;;;;;;;8.95;3.55;;;11.00;62.80;;;;;;5055799;28;20925;-64
2022/03/30 08:53:26;;;;;;;9.68;3.55;;;11.10;62.60;;;;;;5055348;28;20302;-65
2022/03/30 08:55:53;;;;;;;10.00;3.50;;;11.10;62.50;;;;;;5055769;28;20224;-65
2022/03/30 08:58:20;;;;;;;5.88;2.83;;;11.20;62.60;;;;;;5055503;28;20248;-65
2022/03/30 09:00:48;;;;;;;4.63;2.20;;;11.20;62.50;;;;;;5055687;28;20240;-65
2022/03/30 09:03:17;;;;;;;5.90;3.08;;;11.20;61.20;;;;;;5055440;28;20221;-65
2022/03/30 09:05:44;;;;;;;12.85;3.35;;;11.30;61.30;;;;;;5055575;28;20741;-65
2022/03/30 09:08:13;;;;;;;5.13;2.35;;;11.40;61.20;;;;;;5055562;28;20233;-65
2022/03/30 09:10:42;;;;;;;3.30;2.50;;;11.40;59.90;;;;;;5055402;28;20225;-63
2022/03/30 09:13:10;;;;;;;8.82;2.80;;;11.40;59.80;;;;;;5055561;28;20633;-64
2022/03/30 09:15:39;;;;;;;4.05;2.00;;;11.40;58.90;;;;;;5054991;28;20231;-64
2022/03/30 09:18:09;;;;;;;5.85;2.22;;;11.50;58.40;;;;;;5055724;28;20235;-64
2022/03/30 09:20:37;;;;;;;5.40;2.13;;;11.50;56.90;;;;;;5054758;28;20236;-64
2022/03/30 09:23:05;;;;;;;3.63;1.70;;;11.60;56.70;;;;;;5055149;28;20311;-65
2022/03/30 09:25:34;;;;;;;7.75;2.35;;;11.60;56.40;;;;;;5054683;28;20239;-65
2022/03/30 09:28:02;;;;;;;3.90;1.77;;;11.70;56.70;;;;;;5055288;28;20519;-65
2022/03/30 09:30:29;;;;;;;7.25;2.83;;;11.70;57.30;;;;;;5054673;28;20237;-65
2022/03/30 09:32:58;;;;;;;7.90;3.22;;;11.70;57.00;;;;;;5055218;28;20232;-65
2022/03/30 09:35:32;;;;;;;4.63;2.15;;;11.70;56.90;;;;;;5054574;28;20566;-65
2022/03/30 09:38:05;;;;;;;8.95;2.10;;;11.70;56.90;;;;;;5054974;28;20227;-66
2022/03/30 09:40:41;;;;;;;7.35;2.88;;;11.80;56.90;;;;;;5054567;28;20244;-65
2022/03/30 09:43:20;;;;;;;5.07;2.15;;;11.90;57.00;;;;;;5035268;28;20225;-64
2022/03/30 09:45:49;;;;;;;11.38;2.50;;;11.90;57.00;;;;;;5036927;28;20614;-65
2022/03/30 09:48:20;;;;;;;8.82;3.00;;;11.80;56.10;;;;;;5054811;28;20220;-65
2022/03/30 09:50:50;;;;;;;5.85;3.25;;;11.90;56.20;;;;;;5054427;28;20225;-65
2022/03/30 09:53:22;;;;;;;3.70;2.05;;;11.90;56.00;;;;;;5055028;28;20243;-64
2022/03/30 09:56:01;;;;;;;6.93;2.30;;;12.00;55.60;;;;;;5054129;28;20228;-64
2022/03/30 09:58:30;;;;;;;4.22;2.38;;;12.00;55.40;;;;;;5054419;28;20220;-65
2022/03/30 10:01:06;;;;;;;6.03;3.33;;;12.10;55.80;;;;;;5054590;28;20243;-65
2022/03/30 10:03:42;;;;;;;5.95;2.92;;;12.10;55.90;;;;;;5054312;28;20232;-64
2022/03/30 10:06:11;;;;;;;8.57;3.10;;;12.10;55.90;;;;;;5054794;28;20370;-65
2022/03/30 10:08:40;;;;;;;4.32;2.10;;;12.10;55.80;;;;;;5054077;28;20291;-64
2022/03/30 10:11:09;;;;;;;5.95;3.15;;;12.20;55.90;;;;;;5054440;28;20240;-65
2022/03/30 10:13:37;;;;;;;5.00;2.65;;;12.20;55.70;;;;;;5053992;28;20227;-65
2022/03/30 10:16:06;;;;;;;3.90;2.55;;;12.20;55.00;;;;;;5054345;28;20237;-65
2022/03/30 10:18:33;;;;;;;4.32;1.85;;;12.10;54.40;;;;;;5054084;28;20251;-65
2022/03/30 10:21:07;;;;;;;6.55;2.30;;;12.10;54.20;;;;;;5054395;28;20259;-64
2022/03/30 10:23:49;;;;;;;5.55;2.00;;;12.10;54.60;;;;;;5053621;28;20251;-65
2022/03/30 10:26:26;;;;;;;4.55;2.45;;;12.10;54.90;;;;;;5054112;28;20298;-65
2022/03/30 10:28:59;;;;;;;5.55;2.70;;;12.10;55.10;;;;;;5053958;28;20220;-65
2022/03/30 10:31:26;;;;;;;5.75;3.05;;;12.20;55.40;;;;;;5054115;28;20235;-64
2022/03/30 10:33:54;;;;;;;8.00;2.15;;;12.20;55.30;;;;;;5053486;28;20220;-67
2022/03/30 10:36:26;;;;;;;4.72;2.42;;;12.20;55.30;;;;;;5053168;28;20241;-66
2022/03/30 10:39:27;;;;;;;5.22;2.45;;;12.20;55.30;;;;;;5053663;28;20251;-64
2022/03/30 10:41:56;;;;;;;3.47;2.08;;;12.20;55.20;;;;;;5053229;28;20229;-66
2022/03/30 10:44:41;;;;;;;4.88;2.40;;;12.30;55.40;;;;;;5053792;28;20224;-65
2022/03/30 10:47:13;;;;;;;4.32;2.60;;;12.30;55.50;;;;;;5054301;28;20593;-66
2022/03/30 10:49:44;;;;;;;5.13;2.85;;;12.30;55.50;;;;;;5053348;28;20219;-66
2022/03/30 10:52:41;;;;;;;7.07;2.70;;;12.30;55.60;;;;;;5053302;28;20240;-66
2022/03/30 10:55:31;;;;;;;5.30;2.65;;;12.30;55.70;;;;;;5053563;28;20259;-64
2022/03/30 10:58:01;;;;;;;4.63;2.67;;;12.20;55.40;;;;;;5053060;28;20221;-66
2022/03/30 11:00:31;;;;;;;4.50;2.75;;;12.30;55.80;;;;;;5053538;28;20255;-65
2022/03/30 11:03:10;;;;;;;9.13;3.97;;;12.30;55.90;;;;;;5053306;28;20235;-66
2022/03/30 11:05:37;;;;;;;7.07;3.38;;;12.20;55.60;;;;;;5053281;28;20216;-66
2022/03/30 11:08:06;;;;;;;6.85;4.03;;;12.20;55.60;;;;;;5052779;28;20235;-66
2022/03/30 11:10:47;;;;;;;8.32;3.72;;;12.20;55.70;;;;;;5053343;28;20229;-66
2022/03/30 11:13:23;;;;;;;9.27;3.30;;;12.30;55.70;;;;;;5052723;28;20227;-66
2022/03/30 11:16:12;;;;;;;6.10;3.03;;;12.30;55.50;;;;;;5053281;28;20299;-66
2022/03/30 11:18:56;;;;;;;9.75;3.33;;;12.30;54.90;;;;;;5053106;28;20208;-65
2022/03/30 11:21:24;;;;;;;9.45;4.00;;;12.30;55.10;;;;;;5053083;28;20225;-65
2022/03/30 11:24:04;;;;;;;7.20;3.00;;;12.30;55.10;;;;;;5052770;28;20221;-65
2022/03/30 11:27:04;;;;;;;8.00;2.67;;;12.30;55.60;;;;;;5052983;28;20227;-66
2022/03/30 11:29:53;;;;;;;3.15;1.83;;;12.40;55.40;;;;;;5052722;28;20564;-66
2022/03/30 11:32:42;;;;;;;5.43;2.67;;;12.50;55.20;;;;;;5052565;28;20301;-65
2022/03/30 11:35:11;;;;;;;8.15;3.65;;;12.60;55.10;;;;;;5045129;28;20813;-64
2022/03/30 11:37:42;;;;;;;5.78;2.95;;;12.50;54.90;;;;;;5049006;28;20228;-66
2022/03/30 11:40:12;;;;;;;4.30;2.70;;;12.60;54.90;;;;;;5048384;28;20675;-65
2022/03/30 11:42:41;;;;;;;6.13;2.80;;;12.60;54.70;;;;;;5051390;28;20216;-65
2022/03/30 11:45:15;;;;;;;5.57;2.80;;;12.60;54.20;;;;;;5052530;28;20834;-65
2022/03/30 11:47:44;;;;;;;5.60;2.53;;;12.70;54.30;;;;;;5050031;28;20240;-65
2022/03/30 11:50:12;;;;;;;8.52;4.30;;;12.70;54.10;;;;;;5049324;28;20221;-65
2022/03/30 11:52:39;;;;;;;4.95;2.80;;;12.70;54.30;;;;;;5041602;28;20271;-65
2022/03/30 11:55:08;;;;;;;5.35;2.70;;;12.60;53.80;;;;;;5034394;28;20313;-64
2022/03/30 11:57:46;;;;;;;6.22;2.80;;;12.60;53.90;;;;;;5051360;28;20675;-64
2022/03/30 12:00:15;;;;;;;6.63;2.63;;;12.50;53.80;;;;;;5048245;28;20220;-65
2022/03/30 12:02:44;;;;;;;5.20;2.55;;;12.60;53.90;;;;;;5041878;28;20217;-65
2022/03/30 12:05:11;;;;;;;5.25;2.78;;;12.60;54.10;;;;;;5051725;28;20221;-66
2022/03/30 12:07:40;;;;;;;5.15;3.03;;;12.60;53.80;;;;;;5045272;28;20540;-65
2022/03/30 12:10:12;;;;;;;6.88;3.30;;;12.60;54.20;;;;;;5048044;28;20334;-66
2022/03/30 12:12:40;;;;;;;4.18;3.42;;;12.60;54.20;;;;;;5046516;28;20221;-65
2022/03/30 12:15:11;;;;;;;4.32;3.45;;;12.50;54.10;;;;;;5046550;28;20216;-65
2022/03/30 12:17:39;;;;;;;6.30;3.10;;;12.40;54.30;;;;;;5049185;28;20212;-65
2022/03/30 12:20:08;;;;;;;11.45;4.47;;;12.40;54.50;;;;;;5047902;28;20239;-65
2022/03/30 12:22:38;;;;;;;7.05;3.60;;;12.40;54.70;;;;;;5046294;28;20217;-64
2022/03/30 12:25:17;;;;;;;8.90;5.38;;;12.30;55.00;;;;;;5041435;28;20236;-65
2022/03/30 12:27:43;;;;;;;7.35;4.25;;;12.30;55.10;;;;;;5048163;28;20234;-65
2022/03/30 12:30:11;;;;;;;8.32;4.28;;;12.20;55.60;;;;;;5050315;28;20232;-65
2022/03/30 12:32:39;;;;;;;4.25;3.22;;;12.20;55.90;;;;;;5050129;28;20235;-65
2022/03/30 12:35:08;;;;;;;4.93;3.13;;;12.20;56.00;;;;;;5050470;28;20232;-64
2022/03/30 12:37:35;;;;;;;4.75;3.70;;;12.20;56.10;;;;;;5049584;28;20220;-66
2022/03/30 12:40:11;;;;;;;6.85;5.10;;;12.20;56.40;;;;;;5050480;28;20274;-64
2022/03/30 12:42:38;;;;;;;6.88;4.63;;;12.20;56.10;;;;;;5049980;28;20236;-64
2022/03/30 12:45:10;;;;;;;6.20;4.15;;;12.10;56.20;;;;;;5050613;28;20231;-65
2022/03/30 12:47:40;;;;;;;7.60;5.45;;;12.10;56.10;;;;;;5050467;28;20225;-65
2022/03/30 12:50:10;;;;;;;9.65;4.05;;;12.00;56.20;;;;;;5050610;28;20581;-65
2022/03/30 12:52:39;;;;;;;8.02;5.55;;;12.00;56.20;;;;;;5051147;28;20228;-65
2022/03/30 12:55:18;;;;;;;8.95;4.05;;;12.00;56.40;;;;;;5050668;28;20307;-65
2022/03/30 12:57:59;;;;;;;9.43;4.63;;;12.00;56.10;;;;;;5051738;28;20556;-65
2022/03/30 13:00:31;;;;;;;6.90;4.90;;;12.00;56.00;;;;;;5054440;28;20229;-65
2022/03/30 13:03:16;;;;;;;9.35;4.70;;;12.00;55.70;;;;;;5055409;28;20253;-65
2022/03/30 13:05:45;;;;;;;6.25;3.60;;;12.00;55.40;;;;;;5054762;28;20693;-65
2022/03/30 13:08:14;;;;;;;8.05;4.47;;;12.00;54.80;;;;;;5055640;28;20816;-65
2022/03/30 13:10:52;;;;;;;4.90;4.43;;;12.00;54.70;;;;;;5054975;28;20260;-64